createdAt,value
2022-12-19T00:00:35.778Z,30.00
2022-12-19T00:03:05.704Z,25.37
2022-12-19T00:05:38.334Z,31.47
2022-12-19T00:08:17.085Z,28.93
2022-12-19T00:10:55.592Z,24.27
2022-12-19T00:13:24.305Z,22.33
2022-12-19T00:15:55.324Z,25.10
2022-12-19T00:18:24.968Z,29.90
2022-12-19T00:20:57.143Z,34.17
2022-12-19T00:23:25.602Z,35.57
2022-12-19T00:25:53.869Z,34.33
2022-12-19T00:28:22.315Z,36.50
2022-12-19T00:30:50.554Z,31.87
2022-12-19T00:33:21.538Z,35.20
2022-12-19T00:35:51.128Z,41.53
2022-12-19T00:38:19.324Z,34.97
2022-12-19T00:40:47.480Z,27.40
2022-12-19T00:43:15.662Z,37.13
2022-12-19T00:45:43.901Z,33.13
2022-12-19T00:48:12.141Z,30.70
2022-12-19T00:50:42.763Z,30.37
2022-12-19T00:53:12.464Z,27.30
2022-12-19T00:55:40.778Z,31.03
2022-12-19T00:58:08.851Z,38.30
2022-12-19T01:00:37.025Z,35.13
2022-12-19T01:03:05.759Z,34.97
2022-12-19T01:05:34.053Z,35.90
2022-12-19T01:08:02.547Z,33.60
2022-12-19T01:10:32.083Z,37.00
2022-12-19T01:12:59.176Z,31.87
2022-12-19T01:15:27.476Z,34.10
2022-12-19T01:17:55.560Z,39.43
2022-12-19T01:20:29.081Z,24.93
2022-12-19T01:23:00.291Z,35.67
2022-12-19T01:25:28.875Z,32.37
2022-12-19T01:27:58.769Z,34.10
2022-12-19T01:30:27.631Z,33.30
2022-12-19T01:32:58.550Z,34.67
2022-12-19T01:35:26.836Z,33.33
2022-12-19T01:38:03.319Z,32.53
2022-12-19T01:40:37.480Z,30.53
2022-12-19T01:43:07.522Z,36.70
2022-12-19T01:45:42.126Z,31.20
2022-12-19T01:48:17.958Z,32.00
2022-12-19T01:51:01.168Z,30.63
2022-12-19T01:53:35.117Z,25.47
2022-12-19T01:56:07.882Z,36.13
2022-12-19T01:58:40.029Z,22.67
2022-12-19T02:01:08.281Z,25.60
2022-12-19T02:03:39.135Z,24.40
2022-12-19T02:06:09.842Z,30.63
2022-12-19T02:08:38.598Z,29.00
2022-12-19T02:11:07.040Z,27.90
2022-12-19T02:13:35.591Z,26.83
2022-12-19T02:16:17.619Z,33.80
2022-12-19T02:18:57.601Z,27.17
2022-12-19T02:21:46.244Z,30.90
2022-12-19T02:24:57.558Z,28.30
2022-12-19T02:28:07.959Z,25.37
2022-12-19T02:30:51.830Z,23.83
2022-12-19T02:33:32.590Z,26.50
2022-12-19T02:36:09.051Z,26.23
2022-12-19T02:38:46.197Z,23.17
2022-12-19T02:41:23.924Z,19.37
2022-12-19T02:43:59.073Z,18.83
2022-12-19T02:46:30.675Z,16.50
2022-12-19T02:48:59.637Z,22.27
2022-12-19T02:51:27.921Z,19.17
2022-12-19T02:53:56.178Z,21.20
2022-12-19T02:56:35.366Z,18.60
2022-12-19T02:59:35.394Z,17.33
2022-12-19T03:02:12.192Z,18.70
2022-12-19T03:04:49.420Z,17.10
2022-12-19T03:07:29.426Z,20.97
2022-12-19T03:10:07.681Z,19.03
2022-12-19T03:12:39.964Z,17.87
2022-12-19T03:15:09.771Z,20.23
2022-12-19T03:17:39.937Z,25.97
2022-12-19T03:20:15.081Z,19.90
2022-12-19T03:22:43.300Z,19.03
2022-12-19T03:25:11.532Z,16.47
2022-12-19T03:27:41.103Z,14.17
2022-12-19T03:30:13.126Z,12.47
2022-12-19T03:32:45.447Z,19.10
2022-12-19T03:35:19.775Z,20.40
2022-12-19T03:37:50.347Z,17.50
2022-12-19T03:40:21.303Z,16.33
2022-12-19T03:43:08.784Z,21.23
2022-12-19T03:45:46.113Z,18.10
2022-12-19T03:48:22.087Z,18.73
2022-12-19T03:50:57.836Z,22.33
2022-12-19T03:53:34.982Z,20.07
2022-12-19T03:56:12.871Z,18.43
2022-12-19T03:58:46.991Z,24.50
2022-12-19T04:01:15.988Z,17.23
2022-12-19T04:03:46.159Z,16.57
2022-12-19T04:06:16.273Z,16.00
2022-12-19T04:08:45.763Z,15.50
2022-12-19T04:11:19.652Z,20.13
2022-12-19T04:13:54.480Z,17.00
2022-12-19T04:16:32.074Z,18.33
2022-12-19T04:19:07.668Z,13.90
2022-12-19T04:21:43.962Z,14.80
2022-12-19T04:24:20.795Z,22.33
2022-12-19T04:26:51.279Z,22.07
2022-12-19T04:29:20.509Z,16.23
2022-12-19T04:31:49.827Z,16.47
2022-12-19T04:34:22.499Z,16.97
2022-12-19T04:36:52.220Z,15.20
2022-12-19T04:39:20.381Z,11.77
2022-12-19T04:41:48.469Z,15.40
2022-12-19T04:44:16.651Z,13.17
2022-12-19T04:46:44.806Z,12.23
2022-12-19T04:49:13.374Z,17.03
2022-12-19T04:51:42.989Z,17.23
2022-12-19T04:54:11.367Z,23.60
2022-12-19T04:56:39.754Z,20.10
2022-12-19T04:59:07.997Z,17.80
2022-12-19T05:01:36.229Z,15.47
2022-12-19T05:04:05.031Z,15.40
2022-12-19T05:06:33.344Z,16.77
2022-12-19T05:09:02.974Z,18.23
2022-12-19T05:11:31.320Z,19.67
2022-12-19T05:14:00.547Z,13.27
2022-12-19T05:16:29.427Z,15.68
2022-12-19T05:18:57.896Z,19.80
2022-12-19T05:21:26.112Z,15.88
2022-12-19T05:23:55.623Z,17.35
2022-12-19T05:26:25.412Z,10.45
2022-12-19T05:28:53.842Z,13.98
2022-12-19T05:31:23.248Z,12.77
2022-12-19T05:33:51.968Z,21.20
2022-12-19T05:36:20.317Z,13.15
2022-12-19T05:38:48.789Z,17.60
2022-12-19T05:41:18.883Z,15.23
2022-12-19T05:43:52.869Z,18.63
2022-12-19T05:46:21.905Z,16.52
2022-12-19T05:48:50.450Z,13.20
2022-12-19T05:51:19.244Z,14.90
2022-12-19T05:53:47.335Z,11.95
2022-12-19T05:56:17.192Z,12.02
2022-12-19T05:58:46.266Z,15.52
2022-12-19T06:01:18.468Z,16.13
2022-12-19T06:03:46.947Z,14.48
2022-12-19T06:06:17.545Z,15.02
2022-12-19T06:08:45.975Z,15.00
2022-12-19T06:11:17.243Z,8.20
2022-12-19T06:13:48.668Z,12.93
2022-12-19T06:16:19.988Z,17.00
2022-12-19T06:18:48.914Z,15.18
2022-12-19T06:21:19.095Z,11.88
2022-12-19T06:23:48.222Z,12.65
2022-12-19T06:26:20.169Z,11.95
2022-12-19T06:28:49.639Z,13.50
2022-12-19T06:31:20.266Z,19.90
2022-12-19T06:33:48.395Z,13.38
2022-12-19T06:36:20.265Z,16.73
2022-12-19T06:38:48.685Z,17.48
2022-12-19T06:41:34.672Z,10.48
2022-12-19T06:44:03.971Z,18.35
2022-12-19T06:46:34.393Z,18.20
2022-12-19T06:49:02.792Z,13.05
2022-12-19T06:51:31.406Z,12.25
2022-12-19T06:53:59.660Z,13.23
2022-12-19T06:56:28.305Z,14.07
2022-12-19T06:58:56.517Z,15.30
2022-12-19T07:01:35.899Z,16.40
2022-12-19T07:04:05.971Z,16.35
2022-12-19T07:06:34.115Z,11.93
2022-12-19T07:09:02.331Z,12.27
2022-12-19T07:11:30.590Z,15.10
2022-12-19T07:13:59.111Z,24.35
2022-12-19T07:16:29.066Z,15.93
2022-12-19T07:18:57.510Z,12.80
2022-12-19T07:21:27.319Z,12.60
2022-12-19T07:23:55.453Z,14.35
2022-12-19T07:26:24.420Z,10.17
2022-12-19T07:28:52.674Z,12.37
2022-12-19T07:31:20.926Z,12.10
2022-12-19T07:33:49.074Z,15.13
2022-12-19T07:36:17.208Z,13.27
2022-12-19T07:38:46.769Z,13.53
2022-12-19T07:41:15.053Z,15.47
2022-12-19T07:44:32.812Z,12.65
2022-12-19T07:47:00.934Z,14.25
2022-12-19T07:49:29.098Z,9.73
2022-12-19T07:51:57.234Z,11.40
2022-12-19T07:54:26.870Z,15.88
2022-12-19T07:56:55.253Z,17.95
2022-12-19T07:59:29.603Z,12.63
2022-12-19T08:01:58.683Z,10.48
2022-12-19T08:04:27.562Z,9.68
2022-12-19T08:06:55.696Z,9.90
2022-12-19T08:09:27.675Z,14.60
2022-12-19T08:11:57.265Z,15.30
2022-12-19T08:14:25.496Z,15.83
2022-12-19T08:17:19.738Z,13.10
2022-12-19T08:19:41.803Z,8.50
2022-12-19T08:22:10.166Z,8.90
2022-12-19T08:24:39.029Z,11.53
2022-12-19T08:27:08.658Z,14.10
2022-12-19T08:29:36.765Z,13.43
2022-12-19T08:32:05.051Z,12.90
2022-12-19T08:34:33.569Z,9.23
2022-12-19T08:37:01.735Z,10.40
2022-12-19T08:39:29.841Z,11.07
2022-12-19T08:41:59.046Z,15.68
2022-12-19T08:44:28.615Z,13.03
2022-12-19T08:46:56.734Z,12.20
2022-12-19T08:49:24.838Z,13.10
2022-12-19T08:51:52.981Z,13.70
2022-12-19T08:54:21.138Z,10.45
2022-12-19T08:56:49.322Z,15.30
2022-12-19T08:59:17.650Z,15.30
2022-12-19T09:01:55.700Z,11.63
2022-12-19T09:05:55.447Z,14.40
2022-12-19T09:07:15.645Z,13.13
2022-12-19T09:09:44.240Z,13.07
2022-12-19T09:12:13.503Z,13.73
2022-12-19T09:14:41.910Z,13.50
2022-12-19T09:17:11.638Z,17.80
2022-12-19T09:19:39.993Z,11.90
2022-12-19T09:22:11.677Z,11.40
2022-12-19T09:24:40.503Z,14.87
2022-12-19T09:27:08.706Z,13.53
2022-12-19T09:29:36.853Z,12.67
2022-12-19T09:32:05.109Z,10.37
2022-12-19T09:34:38.356Z,9.00
2022-12-19T09:37:07.841Z,14.60
2022-12-19T09:39:36.629Z,11.67
2022-12-19T09:42:41.228Z,11.80
2022-12-19T09:45:42.441Z,9.50
2022-12-19T09:48:23.790Z,12.67
2022-12-19T09:51:09.382Z,14.13
2022-12-19T09:53:45.561Z,11.20
2022-12-19T09:56:25.140Z,10.73
2022-12-19T09:58:59.758Z,12.33
2022-12-19T10:01:33.273Z,10.57
2022-12-19T10:04:04.953Z,9.50
2022-12-19T10:07:12.513Z,12.90
2022-12-19T10:12:46.350Z,11.67
2022-12-19T10:12:47.440Z,9.50
2022-12-19T10:15:27.461Z,13.70
2022-12-19T10:18:19.027Z,11.63
2022-12-19T10:20:53.646Z,11.93
2022-12-19T10:23:45.151Z,8.23
2022-12-19T10:26:20.743Z,7.07
2022-12-19T10:29:05.479Z,6.20
2022-12-19T10:31:39.597Z,12.53
2022-12-19T10:34:17.489Z,14.70
2022-12-19T10:37:24.473Z,7.73
2022-12-19T10:39:52.498Z,8.23
2022-12-19T10:42:32.085Z,8.60
2022-12-19T10:45:03.227Z,10.13
2022-12-19T10:47:31.768Z,10.50
2022-12-19T10:50:05.481Z,8.40
2022-12-19T10:52:52.351Z,10.60
2022-12-19T10:55:40.207Z,9.30
2022-12-19T10:58:20.392Z,7.50
2022-12-19T11:01:00.885Z,5.80
2022-12-19T11:03:29.275Z,9.00
2022-12-19T11:05:58.981Z,12.77
2022-12-19T11:08:29.386Z,11.00
2022-12-19T11:13:29.151Z,10.60
2022-12-19T11:18:41.875Z,11.63
2022-12-19T11:21:28.330Z,8.57
2022-12-19T11:29:37.163Z,9.27
2022-12-19T11:29:37.271Z,8.40
2022-12-19T11:29:40.454Z,7.57
2022-12-19T11:30:38.843Z,10.00
2022-12-19T11:34:06.089Z,9.50
2022-12-19T11:36:39.709Z,9.47
2022-12-19T11:39:17.724Z,11.90
2022-12-19T11:41:53.454Z,8.80
2022-12-19T11:44:31.863Z,20.70
2022-12-19T11:47:10.950Z,11.47
2022-12-19T11:49:43.579Z,7.30
2022-12-19T11:53:02.475Z,7.40
2022-12-19T11:55:20.103Z,11.07
2022-12-19T11:57:49.287Z,8.53
2022-12-19T12:00:21.769Z,12.07
2022-12-19T12:03:13.705Z,7.60
2022-12-19T12:05:44.788Z,8.10
2022-12-19T12:13:00.832Z,8.40
2022-12-19T12:19:03.260Z,10.70
2022-12-19T12:27:26.697Z,13.93
2022-12-19T12:28:21.729Z,10.23
2022-12-19T12:31:04.353Z,7.60
2022-12-19T12:31:38.889Z,9.30
2022-12-19T12:31:57.747Z,11.63
2022-12-19T12:32:00.975Z,10.60
2022-12-19T12:35:56.814Z,9.77
2022-12-19T12:38:49.489Z,11.30
2022-12-19T12:41:39.674Z,10.00
2022-12-19T12:44:12.818Z,9.00
2022-12-19T12:46:43.389Z,8.83
2022-12-19T12:49:30.770Z,9.90
2022-12-19T12:52:02.981Z,10.90
2022-12-19T12:54:35.734Z,8.87
2022-12-19T12:57:04.173Z,9.50
2022-12-19T12:59:33.017Z,11.60
2022-12-19T13:02:08.010Z,13.50
2022-12-19T13:04:43.225Z,11.53
2022-12-19T13:07:21.429Z,9.50
2022-12-19T13:10:06.250Z,13.27
2022-12-19T13:12:51.674Z,14.93
2022-12-19T13:15:37.560Z,12.43
2022-12-19T13:18:37.892Z,9.97
2022-12-19T13:21:10.045Z,14.30
2022-12-19T13:23:48.451Z,11.60
2022-12-19T13:26:45.857Z,18.25
2022-12-19T13:29:33.679Z,10.48
2022-12-19T13:32:17.054Z,14.40
2022-12-19T13:35:21.259Z,12.48
2022-12-19T13:39:50.241Z,17.45
2022-12-19T13:40:57.873Z,11.10
2022-12-19T13:43:49.023Z,13.20
2022-12-19T13:46:27.916Z,13.17
2022-12-19T13:48:59.889Z,12.33
2022-12-19T13:51:28.032Z,15.20
2022-12-19T13:53:59.846Z,16.42
2022-12-19T13:56:32.089Z,24.02
2022-12-19T13:59:02.930Z,53.78
2022-12-19T14:01:33.482Z,53.42
2022-12-19T14:04:08.558Z,34.88
2022-12-19T14:06:42.565Z,27.52
2022-12-19T14:11:25.485Z,13.65
2022-12-19T14:13:59.226Z,22.23
2022-12-19T14:15:32.929Z,17.10
2022-12-19T14:18:41.696Z,17.90
2022-12-19T14:22:06.140Z,20.30
2022-12-19T14:23:43.345Z,18.50
2022-12-19T14:28:21.103Z,16.33
2022-12-19T14:29:15.979Z,15.65
2022-12-19T14:32:24.002Z,11.63
2022-12-19T14:35:05.072Z,17.98
2022-12-19T14:39:18.422Z,18.25
2022-12-19T14:40:27.037Z,16.98
2022-12-19T14:43:55.807Z,15.02
2022-12-19T14:54:12.864Z,18.60
2022-12-19T14:54:16.120Z,16.77
2022-12-19T14:54:20.955Z,17.20
2022-12-19T14:56:16.683Z,12.68
2022-12-19T14:58:56.274Z,13.10
2022-12-19T15:01:26.622Z,14.63
2022-12-19T15:04:49.313Z,11.73
2022-12-19T15:07:07.752Z,13.40
2022-12-19T15:11:04.725Z,13.80
2022-12-19T15:14:53.929Z,12.25
2022-12-19T15:15:55.450Z,13.45
2022-12-19T15:18:28.441Z,12.52
2022-12-19T15:20:59.212Z,12.02
2022-12-19T15:23:28.075Z,12.48
2022-12-19T15:26:05.719Z,14.45
2022-12-19T15:28:40.383Z,8.57
2022-12-19T15:31:19.577Z,10.68
2022-12-19T15:34:14.886Z,10.70
2022-12-19T15:36:37.747Z,12.05
2022-12-19T15:39:06.083Z,11.20
2022-12-19T15:41:34.265Z,10.32
2022-12-19T15:44:08.533Z,13.20
2022-12-19T15:46:38.902Z,9.75
2022-12-19T15:49:16.655Z,13.35
2022-12-19T15:51:45.175Z,8.82
2022-12-19T15:57:01.466Z,12.38
2022-12-19T15:59:38.012Z,7.80
2022-12-19T16:02:20.041Z,9.02
2022-12-19T16:04:56.924Z,16.63
2022-12-19T16:07:31.009Z,10.43
2022-12-19T16:09:59.175Z,12.32
2022-12-19T16:12:33.975Z,11.43
2022-12-19T16:15:03.182Z,11.80
2022-12-19T16:17:33.798Z,9.80
2022-12-19T16:20:03.370Z,10.95
2022-12-19T16:22:31.801Z,19.05
2022-12-19T16:25:00.101Z,11.70
2022-12-19T16:27:30.265Z,13.20
2022-12-19T16:30:03.891Z,12.95
2022-12-19T16:32:32.021Z,14.57
2022-12-19T16:35:00.252Z,25.63
2022-12-19T16:37:32.406Z,16.13
2022-12-19T16:40:02.077Z,16.75
2022-12-19T16:42:31.348Z,15.32
2022-12-19T16:44:59.519Z,13.27
2022-12-19T16:47:28.308Z,9.55
2022-12-19T16:49:56.712Z,19.02
2022-12-19T16:52:25.075Z,15.35
2022-12-19T16:54:54.659Z,10.10
2022-12-19T16:57:23.927Z,12.68
2022-12-19T16:59:52.795Z,16.80
2022-12-19T17:02:43.504Z,17.65
2022-12-19T17:05:24.393Z,11.40
2022-12-19T17:07:53.394Z,10.05
2022-12-19T17:10:26.694Z,11.45
2022-12-19T17:12:56.658Z,11.20
2022-12-19T17:15:28.683Z,12.38
2022-12-19T17:17:59.365Z,17.85
2022-12-19T17:20:31.922Z,12.65
2022-12-19T17:23:00.347Z,15.63
2022-12-19T17:25:30.197Z,7.20
2022-12-19T17:27:58.538Z,13.60
2022-12-19T17:30:26.745Z,28.98
2022-12-19T17:32:56.880Z,22.23
2022-12-19T17:35:29.167Z,45.78
2022-12-19T17:37:58.386Z,36.00
2022-12-19T17:40:28.388Z,35.50
2022-12-19T17:42:58.732Z,16.63
2022-12-19T17:45:30.042Z,9.80
2022-12-19T17:48:03.206Z,18.73
2022-12-19T17:50:36.558Z,10.93
2022-12-19T17:53:04.892Z,18.48
2022-12-19T17:55:33.500Z,5.80
2022-12-19T17:58:03.194Z,8.60
2022-12-19T18:00:33.738Z,13.00
2022-12-19T18:03:06.791Z,21.95
2022-12-19T18:05:37.147Z,14.02
2022-12-19T18:08:11.235Z,16.05
2022-12-19T18:10:39.563Z,13.20
2022-12-19T18:13:09.045Z,9.63
2022-12-19T18:15:37.703Z,8.60
2022-12-19T18:18:06.606Z,15.63
2022-12-19T18:20:35.113Z,13.38
2022-12-19T18:23:03.757Z,10.10
2022-12-19T18:25:35.256Z,11.15
2022-12-19T18:28:03.705Z,13.00
2022-12-19T18:30:33.291Z,9.07
2022-12-19T18:33:03.410Z,15.75
2022-12-19T18:35:37.197Z,11.20
2022-12-19T18:38:08.266Z,12.05
2022-12-19T18:40:36.557Z,6.47
2022-12-19T18:43:05.255Z,7.50
2022-12-19T18:45:37.450Z,14.80
2022-12-19T18:48:09.286Z,17.70
2022-12-19T18:50:37.418Z,13.93
2022-12-19T18:53:11.899Z,15.20
2022-12-19T18:55:40.014Z,9.00
2022-12-19T18:58:08.322Z,7.72
2022-12-19T19:00:40.481Z,12.88
2022-12-19T19:03:15.504Z,13.57
2022-12-19T19:05:44.257Z,15.77
2022-12-19T19:08:17.894Z,9.95
2022-12-19T19:10:47.290Z,18.17
2022-12-19T19:13:16.507Z,12.68
2022-12-19T19:15:49.631Z,9.63
2022-12-19T19:18:20.937Z,16.23
2022-12-19T19:20:53.159Z,10.43
2022-12-19T19:23:27.730Z,13.90
2022-12-19T19:25:55.990Z,15.90
2022-12-19T19:28:24.097Z,14.63
2022-12-19T19:30:53.968Z,15.07
2022-12-19T19:33:25.114Z,17.38
2022-12-19T19:35:57.091Z,19.50
2022-12-19T19:38:25.813Z,12.85
2022-12-19T19:40:54.296Z,11.32
2022-12-19T19:43:22.435Z,13.57
2022-12-19T19:45:53.308Z,11.02
2022-12-19T19:48:21.790Z,13.05
2022-12-19T19:50:50.141Z,12.98
2022-12-19T19:53:18.305Z,13.38
2022-12-19T19:55:46.376Z,22.00
2022-12-19T19:58:14.517Z,19.40
2022-12-19T20:00:43.579Z,15.23
2022-12-19T20:03:18.739Z,13.05
2022-12-19T20:05:51.355Z,18.85
2022-12-19T20:08:19.689Z,11.88
2022-12-19T20:10:55.452Z,11.85
2022-12-19T20:13:23.687Z,9.25
2022-12-19T20:15:52.333Z,11.27
2022-12-19T20:18:21.885Z,10.05
2022-12-19T20:20:50.102Z,9.15
2022-12-19T20:23:18.281Z,9.20
2022-12-19T20:25:47.557Z,14.25
2022-12-19T20:28:15.735Z,11.13
2022-12-19T20:30:43.857Z,12.10
2022-12-19T20:33:12.021Z,24.08
2022-12-19T20:35:41.572Z,15.50
2022-12-19T20:38:09.822Z,5.00
2022-12-19T20:40:37.943Z,16.75
2022-12-19T20:43:06.182Z,11.20
2022-12-19T20:45:34.450Z,13.70
2022-12-19T20:48:02.608Z,12.32
2022-12-19T20:50:30.855Z,12.68
2022-12-19T20:53:00.405Z,15.23
2022-12-19T20:55:29.258Z,9.15
2022-12-19T20:57:57.431Z,10.75
2022-12-19T21:00:25.776Z,8.77
2022-12-19T21:03:26.665Z,12.80
2022-12-19T21:05:43.258Z,14.00
2022-12-19T21:08:12.817Z,9.52
2022-12-19T21:10:40.973Z,12.90
2022-12-19T21:13:10.301Z,6.70
2022-12-19T21:15:38.475Z,10.18
2022-12-19T21:18:06.951Z,13.50
2022-12-19T21:20:35.917Z,10.93
2022-12-19T21:23:05.188Z,18.48
2022-12-19T21:25:34.753Z,11.13
2022-12-19T21:28:03.056Z,9.25
2022-12-19T21:30:31.280Z,11.23
2022-12-19T21:32:59.410Z,10.38
2022-12-19T21:35:27.779Z,12.90
2022-12-19T21:37:56.028Z,10.52
2022-12-19T21:40:24.216Z,16.92
2022-12-19T21:42:54.269Z,18.77
2022-12-19T21:45:22.511Z,12.48
2022-12-19T21:47:50.832Z,13.55
2022-12-19T21:50:19.075Z,10.35
2022-12-19T21:52:50.211Z,17.50
2022-12-19T21:55:22.442Z,14.00
2022-12-19T21:57:50.577Z,16.48
2022-12-19T22:00:21.460Z,10.70
2022-12-19T22:03:12.031Z,9.70
2022-12-19T22:05:37.923Z,10.27
2022-12-19T22:08:06.620Z,14.32
2022-12-19T22:10:34.860Z,11.60
2022-12-19T22:13:03.238Z,12.93
2022-12-19T22:15:32.848Z,10.48
2022-12-19T22:18:01.200Z,10.02
2022-12-19T22:20:29.327Z,11.38
2022-12-19T22:22:57.429Z,16.60
2022-12-19T22:25:25.547Z,11.43
2022-12-19T22:27:56.670Z,14.45
2022-12-19T22:30:24.787Z,5.68
2022-12-19T22:32:54.521Z,11.60
2022-12-19T22:35:22.608Z,14.05
2022-12-19T22:37:52.071Z,13.57
2022-12-19T22:40:20.208Z,11.43
2022-12-19T22:42:48.347Z,8.95
2022-12-19T22:45:16.594Z,11.45
2022-12-19T22:47:45.191Z,12.40
2022-12-19T22:50:14.694Z,13.48
2022-12-19T22:52:42.828Z,13.43
2022-12-19T22:55:11.309Z,13.93
2022-12-19T22:57:39.610Z,12.23
2022-12-19T23:00:10.933Z,12.18
2022-12-19T23:02:40.255Z,12.45
2022-12-19T23:05:09.392Z,16.08
2022-12-19T23:07:38.882Z,10.60
2022-12-19T23:10:08.518Z,9.68
2022-12-19T23:12:36.569Z,15.73
2022-12-19T23:15:05.045Z,14.57
2022-12-19T23:17:33.228Z,8.20
2022-12-19T23:20:01.371Z,13.02
2022-12-19T23:22:29.664Z,15.05
2022-12-19T23:24:59.664Z,12.63
2022-12-19T23:27:27.814Z,16.25
2022-12-19T23:29:55.947Z,11.65
2022-12-19T23:32:24.129Z,14.50
2022-12-19T23:34:52.354Z,9.15
2022-12-19T23:37:20.547Z,10.80
2022-12-19T23:39:48.617Z,9.75
2022-12-19T23:42:18.169Z,9.77
2022-12-19T23:44:46.295Z,15.05
2022-12-19T23:47:14.503Z,14.15
2022-12-19T23:49:42.636Z,14.95
2022-12-19T23:52:11.020Z,8.43
2022-12-19T23:54:39.098Z,16.10
2022-12-19T23:57:07.408Z,9.10
2022-12-19T23:59:37.166Z,14.82
